Time;durP1;ratioP1;P1;durP2;ratioP2;P2;SDS_P1;SDS_P2;PMS_P1;PMS_P2;Temp;Humidity;BMP_temperature;BMP_pressure;BME280_temperature;BME280_humidity;BME280_pressure;Samples;Min_cycle;Max_cycle;Signal;HPM_P1;HPM_P2
2023/01/07 00:01:27;;;;;;;70.95;19.55;;;5.40;99.90;;;;;;5030512;28;20461;-67
2023/01/07 00:03:53;;;;;;;;;;;5.50;99.90;;;;;;5028382;28;20038;-67
2023/01/07 00:06:23;;;;;;;61.75;18.92;;;5.60;99.90;;;;;;5019581;28;19909;-67
2023/01/07 00:08:51;;;;;;;71.40;21.60;;;5.70;99.90;;;;;;5016641;28;20026;-68
2023/01/07 00:11:22;;;;;;;77.15;23.48;;;5.80;99.90;;;;;;5027799;28;20033;-68
2023/01/07 00:13:49;;;;;;;78.68;22.67;;;5.80;99.90;;;;;;5033463;28;20017;-67
2023/01/07 00:16:17;;;;;;;81.10;23.42;;;5.90;99.90;;;;;;5032208;28;20021;-67
2023/01/07 00:18:43;;;;;;;86.32;23.83;;;5.90;99.90;;;;;;5030397;28;20119;-67
2023/01/07 00:21:11;;;;;;;83.93;23.73;;;5.90;99.90;;;;;;5032068;28;20026;-68
2023/01/07 00:23:38;;;;;;;102.95;26.95;;;5.90;99.90;;;;;;5028481;28;20021;-67
2023/01/07 00:26:05;;;;;;;85.95;24.60;;;6.00;99.90;;;;;;5031975;28;20047;-68
2023/01/07 00:28:33;;;;;;;86.85;25.15;;;6.10;99.90;;;;;;5031617;28;20041;-68
2023/01/07 00:31:04;;;;;;;89.93;24.25;;;6.10;99.90;;;;;;5033052;28;21069;-67
2023/01/07 00:33:30;;;;;;;93.57;26.60;;;6.20;99.90;;;;;;5030367;28;20038;-67
2023/01/07 00:36:07;;;;;;;94.10;25.10;;;6.30;99.90;;;;;;5031806;28;20382;-67
2023/01/07 00:38:33;;;;;;;93.63;26.88;;;6.20;99.90;;;;;;5023003;28;20034;-67
2023/01/07 00:40:58;;;;;;;96.50;27.10;;;6.20;99.90;;;;;;5022622;28;20034;-67
2023/01/07 00:43:24;;;;;;;99.85;27.33;;;6.20;99.90;;;;;;5028671;28;20095;-67
2023/01/07 00:45:49;;;;;;;98.43;26.58;;;6.30;99.90;;;;;;5028551;28;20450;-67
2023/01/07 00:48:17;;;;;;;102.95;27.27;;;6.30;99.90;;;;;;5031091;28;20029;-68
2023/01/07 00:50:43;;;;;;;103.85;27.83;;;6.20;99.90;;;;;;5031500;28;20032;-67
2023/01/07 00:53:10;;;;;;;109.32;28.60;;;6.20;99.90;;;;;;5031339;28;20053;-67
2023/01/07 00:55:35;;;;;;;103.10;29.20;;;6.20;99.90;;;;;;5029682;28;20116;-68
2023/01/07 00:58:01;;;;;;;109.95;28.85;;;6.30;99.90;;;;;;5023761;28;20160;-67
2023/01/07 01:00:26;;;;;;;106.85;29.02;;;6.30;99.90;;;;;;5026126;28;20080;-67
2023/01/07 01:02:52;;;;;;;112.38;28.98;;;6.30;99.90;;;;;;5024134;28;20033;-67
2023/01/07 01:05:18;;;;;;;106.57;29.27;;;6.40;99.90;;;;;;5025943;28;20437;-68
2023/01/07 01:07:44;;;;;;;103.50;29.35;;;6.40;99.90;;;;;;5025756;28;20064;-67
2023/01/07 01:10:14;;;;;;;112.10;30.23;;;6.40;99.90;;;;;;5027217;28;20052;-67
2023/01/07 01:12:40;;;;;;;124.43;33.17;;;6.50;99.90;;;;;;5023728;28;20042;-67
2023/01/07 01:15:09;;;;;;;111.38;30.27;;;6.50;99.90;;;;;;5038419;28;20505;-69
2023/01/07 01:17:35;;;;;;;117.28;30.63;;;6.60;99.90;;;;;;5028509;28;20442;-67
2023/01/07 01:20:01;;;;;;;124.20;32.67;;;6.70;99.90;;;;;;5025323;28;20129;-67
2023/01/07 01:22:27;;;;;;;126.30;33.30;;;6.70;99.90;;;;;;5027753;28;20056;-68
2023/01/07 01:24:52;;;;;;;112.47;32.75;;;6.70;99.90;;;;;;5027048;28;20065;-67
2023/01/07 01:27:19;;;;;;;119.20;33.00;;;6.80;99.90;;;;;;5023182;28;20037;-67
2023/01/07 01:29:44;;;;;;;129.15;34.08;;;6.80;99.90;;;;;;5024566;28;20477;-67
2023/01/07 01:32:10;;;;;;;118.90;33.13;;;6.90;99.90;;;;;;5026940;28;20088;-68
2023/01/07 01:34:35;;;;;;;113.80;32.15;;;6.90;99.90;;;;;;5028240;28;20481;-67
2023/01/07 01:37:01;;;;;;;110.80;32.45;;;7.00;99.90;;;;;;5026309;28;20063;-67
2023/01/07 01:39:26;;;;;;;120.07;34.03;;;7.00;99.90;;;;;;5029094;28;20029;-68
2023/01/07 01:41:52;;;;;;;131.57;33.70;;;7.10;99.90;;;;;;5026624;28;20473;-67
2023/01/07 01:44:36;;;;;;;113.90;34.05;;;7.10;99.90;;;;;;5030724;28;20038;-67
2023/01/07 01:47:05;;;;;;;115.85;32.33;;;7.20;99.90;;;;;;5025821;28;20036;-68
2023/01/07 01:49:37;;;;;;;118.38;34.20;;;7.20;99.90;;;;;;5027810;28;20037;-69
2023/01/07 01:52:08;;;;;;;128.02;35.92;;;7.20;99.90;;;;;;5029548;28;20029;-67
2023/01/07 01:54:34;;;;;;;129.52;34.58;;;7.30;99.90;;;;;;5029158;28;20026;-68
2023/01/07 01:57:03;;;;;;;119.70;33.65;;;7.40;99.90;;;;;;5027297;28;20042;-68
2023/01/07 01:59:32;;;;;;;110.60;31.83;;;7.50;99.90;;;;;;5026777;28;20032;-67
2023/01/07 02:01:58;;;;;;;124.57;33.72;;;7.50;99.90;;;;;;5027654;28;20040;-67
2023/01/07 02:04:25;;;;;;;118.55;33.72;;;7.50;99.90;;;;;;5026951;28;20018;-69
2023/01/07 02:07:05;;;;;;;116.80;33.67;;;7.50;99.90;;;;;;5035187;28;20037;-68
2023/01/07 02:09:31;;;;;;;121.88;34.10;;;7.60;99.90;;;;;;5026867;28;20034;-68
2023/01/07 02:12:08;;;;;;;121.32;35.03;;;7.60;99.90;;;;;;5029005;28;20374;-67
2023/01/07 02:14:41;;;;;;;107.45;32.35;;;7.60;99.90;;;;;;5037091;28;20091;-68
2023/01/07 02:17:23;;;;;;;122.38;35.80;;;7.50;99.90;;;;;;5027384;28;20041;-67
2023/01/07 02:20:16;;;;;;;119.50;34.70;;;7.50;99.90;;;;;;5029354;28;20025;-67
2023/01/07 02:23:19;;;;;;;115.40;33.90;;;7.50;99.90;;;;;;5023150;28;20053;-67
2023/01/07 02:26:19;;;;;;;113.13;31.85;;;7.50;99.90;;;;;;5027122;28;20040;-67
2023/01/07 02:29:17;;;;;;;121.32;33.53;;;7.60;99.90;;;;;;5020834;28;20033;-68
2023/01/07 02:32:07;;;;;;;114.75;31.65;;;7.60;99.90;;;;;;5010932;28;20053;-67
2023/01/07 02:34:53;;;;;;;109.40;32.35;;;7.60;99.90;;;;;;5028182;28;20033;-67
2023/01/07 02:37:34;;;;;;;117.25;33.67;;;7.60;99.90;;;;;;5029966;28;20064;-68
2023/01/07 02:40:26;;;;;;;124.10;34.15;;;7.60;99.90;;;;;;5028451;28;20033;-68
2023/01/07 02:43:14;;;;;;;117.55;33.30;;;7.70;99.90;;;;;;5027395;28;20041;-67
2023/01/07 02:45:51;;;;;;;113.90;33.17;;;7.70;99.90;;;;;;5028585;28;20416;-68
2023/01/07 02:48:20;;;;;;;118.55;33.90;;;7.80;99.90;;;;;;5029793;28;20120;-67
2023/01/07 02:50:45;;;;;;;123.13;34.00;;;7.80;99.90;;;;;;5028601;28;20042;-69
2023/01/07 02:53:17;;;;;;;110.03;32.00;;;7.80;99.90;;;;;;5029425;28;20029;-68
2023/01/07 02:55:45;;;;;;;108.43;32.17;;;7.80;99.90;;;;;;5029612;28;20067;-68
2023/01/07 02:58:44;;;;;;;109.18;31.55;;;7.80;99.90;;;;;;5023644;28;20034;-68
2023/01/07 03:01:16;;;;;;;106.50;31.92;;;7.80;99.90;;;;;;5022715;28;20370;-67
2023/01/07 03:03:59;;;;;;;117.65;32.38;;;7.80;99.90;;;;;;5026487;28;20030;-68
2023/01/07 03:07:03;;;;;;;113.68;32.47;;;7.80;99.90;;;;;;5028032;28;20038;-68
2023/01/07 03:09:56;;;;;;;105.80;32.42;;;7.90;99.90;;;;;;5006799;28;20049;-69
2023/01/07 03:12:34;;;;;;;111.43;32.47;;;8.00;99.90;;;;;;5021734;28;20137;-67
2023/01/07 03:15:25;;;;;;;107.47;32.58;;;7.90;99.90;;;;;;5025925;28;20033;-67
2023/01/07 03:18:05;;;;;;;93.63;29.13;;;8.00;99.90;;;;;;5028017;28;20033;-67
2023/01/07 03:20:34;;;;;;;101.93;30.80;;;8.00;99.90;;;;;;5028431;28;20052;-68
2023/01/07 03:23:04;;;;;;;98.82;30.17;;;8.10;99.90;;;;;;5028425;28;20045;-68
2023/01/07 03:25:31;;;;;;;97.38;30.00;;;8.10;99.90;;;;;;5032714;28;20044;-68
2023/01/07 03:27:59;;;;;;;103.85;32.90;;;8.10;99.90;;;;;;5024306;28;20033;-68
2023/01/07 03:30:26;;;;;;;99.10;31.23;;;8.10;99.90;;;;;;5032026;28;20116;-67
2023/01/07 03:33:33;;;;;;;94.80;32.42;;;8.10;99.90;;;;;;5032779;28;20033;-67
2023/01/07 03:36:01;;;;;;;95.93;30.33;;;8.20;99.90;;;;;;5032692;28;20085;-68
2023/01/07 03:38:28;;;;;;;95.07;31.92;;;8.20;99.90;;;;;;5024353;28;20422;-67
2023/01/07 03:40:53;;;;;;;95.47;30.38;;;8.20;99.90;;;;;;5031815;28;20037;-68
2023/01/07 03:43:21;;;;;;;91.57;31.02;;;8.20;99.90;;;;;;5031249;28;20531;-67
2023/01/07 03:45:48;;;;;;;85.32;30.98;;;8.20;99.90;;;;;;5033145;28;20034;-69
2023/01/07 03:48:14;;;;;;;95.65;30.55;;;8.20;99.90;;;;;;5032309;28;20086;-67
2023/01/07 03:50:40;;;;;;;88.90;29.95;;;8.20;99.90;;;;;;5030466;28;20041;-68
2023/01/07 03:53:05;;;;;;;91.53;31.42;;;8.20;99.90;;;;;;5032142;28;20044;-68
2023/01/07 03:55:30;;;;;;;92.75;30.90;;;8.20;99.90;;;;;;5032967;28;20385;-68
2023/01/07 03:57:56;;;;;;;95.70;31.33;;;8.30;99.90;;;;;;5028413;28;20038;-67
2023/01/07 04:00:22;;;;;;;87.00;30.45;;;8.30;99.90;;;;;;5026880;28;20045;-68
2023/01/07 04:02:47;;;;;;;91.65;30.58;;;8.30;99.90;;;;;;5033139;28;20059;-67
2023/01/07 04:05:13;;;;;;;85.47;29.77;;;8.30;99.90;;;;;;5027871;28;20095;-68
2023/01/07 04:07:38;;;;;;;94.68;31.05;;;8.40;99.90;;;;;;5028087;28;20119;-68
2023/01/07 04:10:05;;;;;;;99.95;31.77;;;8.40;99.90;;;;;;5031172;28;20107;-68
2023/01/07 04:12:31;;;;;;;88.50;29.50;;;8.30;99.90;;;;;;5028148;28;20064;-67
2023/01/07 04:14:56;;;;;;;91.85;29.58;;;8.40;99.90;;;;;;5035477;28;20548;-68
2023/01/07 04:17:22;;;;;;;87.90;29.83;;;8.40;99.90;;;;;;5031939;28;20048;-68
2023/01/07 04:19:47;;;;;;;97.00;31.27;;;8.50;99.90;;;;;;5029132;28;20057;-68
2023/01/07 04:22:13;;;;;;;85.93;30.23;;;8.40;99.90;;;;;;5029180;28;20469;-68
2023/01/07 04:24:38;;;;;;;96.20;32.25;;;8.50;99.90;;;;;;5032081;28;20033;-67
2023/01/07 04:27:04;;;;;;;91.35;31.00;;;8.50;99.90;;;;;;5026390;28;20097;-68
2023/01/07 04:29:29;;;;;;;87.45;30.23;;;8.50;99.90;;;;;;5031932;28;20033;-68
2023/01/07 04:31:55;;;;;;;82.15;28.90;;;8.50;99.90;;;;;;5031437;28;20121;-68
2023/01/07 04:34:21;;;;;;;91.03;31.27;;;8.60;99.90;;;;;;5028044;28;20032;-68
2023/01/07 04:36:47;;;;;;;89.68;30.83;;;8.60;99.90;;;;;;5030963;28;20472;-69
2023/01/07 04:39:12;;;;;;;88.35;30.02;;;8.60;99.90;;;;;;5023945;28;20037;-68
2023/01/07 04:41:38;;;;;;;90.13;31.17;;;8.60;99.90;;;;;;5028885;28;20108;-69
2023/01/07 04:44:04;;;;;;;85.45;30.83;;;8.70;99.90;;;;;;5029601;28;20492;-68
2023/01/07 04:46:29;;;;;;;93.13;31.92;;;8.60;99.90;;;;;;5029205;28;20045;-68
2023/01/07 04:48:55;;;;;;;85.20;31.38;;;8.60;99.90;;;;;;5027714;28;20048;-68
2023/01/07 04:51:20;;;;;;;79.50;30.40;;;8.60;99.90;;;;;;5016342;28;20038;-69
2023/01/07 04:53:47;;;;;;;79.03;29.38;;;8.70;99.90;;;;;;5028549;28;20037;-68
2023/01/07 04:56:12;;;;;;;81.40;31.17;;;8.80;99.90;;;;;;5030022;28;20117;-67
2023/01/07 04:58:37;;;;;;;80.35;30.77;;;8.80;99.90;;;;;;5027025;28;20116;-69
2023/01/07 05:01:03;;;;;;;85.70;30.73;;;8.80;99.90;;;;;;5029778;28;20492;-68
2023/01/07 05:03:29;;;;;;;82.03;30.35;;;8.80;99.90;;;;;;5028699;28;20037;-69
2023/01/07 05:05:55;;;;;;;78.28;31.30;;;8.80;99.90;;;;;;5035555;28;20036;-68
2023/01/07 05:08:21;;;;;;;89.38;31.90;;;8.90;99.90;;;;;;5032098;28;20029;-68
2023/01/07 05:10:49;;;;;;;86.28;31.02;;;8.80;99.90;;;;;;5025371;28;20034;-68
2023/01/07 05:13:16;;;;;;;89.28;33.13;;;8.90;99.90;;;;;;5027100;28;20076;-68
2023/01/07 05:15:42;;;;;;;76.57;30.33;;;8.90;99.90;;;;;;5030330;28;20037;-68
2023/01/07 05:18:07;;;;;;;80.75;32.00;;;8.90;99.90;;;;;;5028569;28;20098;-69
2023/01/07 05:20:33;;;;;;;87.28;31.70;;;8.90;99.90;;;;;;5029334;28;20026;-68
2023/01/07 05:22:58;;;;;;;77.95;30.00;;;8.90;99.90;;;;;;5022346;28;20058;-69
2023/01/07 05:25:24;;;;;;;78.95;31.58;;;8.90;99.90;;;;;;5029633;28;20083;-68
2023/01/07 05:27:49;;;;;;;78.15;33.10;;;9.00;99.90;;;;;;5026075;28;20395;-70
2023/01/07 05:30:15;;;;;;;69.20;30.58;;;9.00;99.90;;;;;;5023252;28;20482;-71
2023/01/07 05:32:40;;;;;;;80.00;30.85;;;9.00;99.90;;;;;;5030021;28;20041;-71
2023/01/07 05:35:06;;;;;;;76.60;30.45;;;9.00;99.90;;;;;;5029464;28;20045;-71
2023/01/07 05:37:32;;;;;;;77.00;30.38;;;9.00;99.90;;;;;;5029926;28;20037;-71
2023/01/07 05:39:58;;;;;;;80.22;31.20;;;9.00;99.90;;;;;;5030013;28;20032;-71
2023/01/07 05:42:23;;;;;;;84.68;33.30;;;9.00;99.90;;;;;;5019586;28;20037;-71
2023/01/07 05:44:49;;;;;;;68.10;29.83;;;9.00;99.90;;;;;;5030675;28;20044;-71
2023/01/07 05:47:14;;;;;;;78.93;32.20;;;9.10;99.90;;;;;;5031071;28;20041;-71
2023/01/07 05:49:40;;;;;;;77.78;31.08;;;9.00;99.90;;;;;;5020212;28;20064;-71
2023/01/07 05:52:05;;;;;;;79.05;30.35;;;9.00;99.90;;;;;;5024041;28;20034;-71
2023/01/07 05:54:31;;;;;;;77.20;29.85;;;9.00;99.90;;;;;;5028206;28;20429;-71
2023/01/07 05:56:56;;;;;;;75.63;31.00;;;9.00;99.90;;;;;;5025003;28;20034;-71
2023/01/07 05:59:22;;;;;;;77.50;30.52;;;9.00;99.90;;;;;;5024638;28;20377;-71
2023/01/07 06:01:47;;;;;;;72.43;30.38;;;9.00;99.90;;;;;;5028180;28;20033;-71
2023/01/07 06:04:13;;;;;;;77.60;32.65;;;9.00;99.90;;;;;;5025282;28;20525;-71
2023/01/07 06:06:38;;;;;;;69.10;30.23;;;9.10;99.90;;;;;;5028580;28;20045;-71
2023/01/07 06:09:04;;;;;;;80.93;32.65;;;9.10;99.90;;;;;;5027874;28;20105;-71
2023/01/07 06:11:29;;;;;;;77.40;32.20;;;9.10;99.90;;;;;;5022441;28;20475;-71
2023/01/07 06:13:55;;;;;;;72.82;31.02;;;9.00;99.90;;;;;;5037547;28;20064;-72
2023/01/07 06:16:20;;;;;;;73.82;30.48;;;9.10;99.90;;;;;;5025713;28;20468;-72
2023/01/07 06:18:46;;;;;;;81.63;32.40;;;9.00;99.90;;;;;;5028597;28;20080;-72
2023/01/07 06:21:11;;;;;;;72.00;30.67;;;9.10;99.90;;;;;;5027555;28;20477;-72
2023/01/07 06:23:37;;;;;;;75.90;32.50;;;9.00;99.90;;;;;;5022850;28;20037;-73
2023/01/07 06:26:02;;;;;;;77.30;30.48;;;9.00;99.90;;;;;;5022065;28;20037;-72
2023/01/07 06:28:28;;;;;;;75.85;31.45;;;9.10;99.90;;;;;;5028572;28;20116;-72
2023/01/07 06:30:54;;;;;;;69.82;31.63;;;9.00;99.90;;;;;;5024042;28;20033;-73
2023/01/07 06:33:19;;;;;;;74.38;31.15;;;9.10;99.90;;;;;;5019525;28;20514;-73
2023/01/07 06:35:45;;;;;;;71.60;30.50;;;9.10;99.90;;;;;;5022076;28;20026;-73
2023/01/07 06:38:11;;;;;;;73.25;32.08;;;9.10;99.90;;;;;;5021293;28;20508;-73
2023/01/07 06:40:36;;;;;;;74.95;31.92;;;9.10;99.90;;;;;;5024724;28;22091;-73
2023/01/07 06:43:04;;;;;;;78.47;32.13;;;9.10;99.90;;;;;;5028612;28;20477;-73
2023/01/07 06:45:30;;;;;;;73.22;32.45;;;9.10;99.90;;;;;;5023919;28;20038;-73
2023/01/07 06:47:57;;;;;;;77.35;31.55;;;9.10;99.90;;;;;;5023454;28;20144;-73
2023/01/07 06:50:22;;;;;;;80.25;32.65;;;9.10;99.90;;;;;;5025928;28;20087;-73
2023/01/07 06:52:48;;;;;;;79.85;33.35;;;9.10;99.90;;;;;;5027302;28;20033;-73
2023/01/07 06:55:14;;;;;;;77.80;32.58;;;9.10;99.90;;;;;;5024611;28;20427;-73
2023/01/07 06:57:39;;;;;;;72.85;32.25;;;9.10;99.90;;;;;;5028145;28;20073;-73
2023/01/07 07:00:05;;;;;;;77.15;32.00;;;9.00;99.90;;;;;;5032096;28;20037;-73
2023/01/07 07:02:30;;;;;;;77.18;33.15;;;9.00;99.90;;;;;;5028203;28;20029;-73
2023/01/07 07:04:56;;;;;;;68.13;30.10;;;9.10;99.90;;;;;;5023888;28;20048;-73
2023/01/07 07:07:22;;;;;;;68.57;30.70;;;9.00;99.90;;;;;;5027113;28;20037;-73
2023/01/07 07:09:49;;;;;;;73.93;31.65;;;9.00;99.90;;;;;;5025049;28;20359;-73
2023/01/07 07:12:15;;;;;;;72.20;31.00;;;9.10;99.90;;;;;;5029617;28;20108;-74
2023/01/07 07:14:40;;;;;;;68.32;31.83;;;9.10;99.90;;;;;;5028737;28;20163;-74
2023/01/07 07:17:06;;;;;;;62.58;29.65;;;9.10;99.90;;;;;;5028798;28;20460;-74
2023/01/07 07:19:31;;;;;;;66.72;31.52;;;9.10;99.90;;;;;;5030433;28;20037;-73
2023/01/07 07:21:57;;;;;;;62.53;27.85;;;9.10;99.90;;;;;;5022741;28;20045;-73
2023/01/07 07:24:22;;;;;;;62.78;29.33;;;9.10;99.90;;;;;;5027054;28;20061;-73
2023/01/07 07:26:48;;;;;;;59.92;28.55;;;9.20;99.90;;;;;;5031422;28;20033;-73
2023/01/07 07:29:13;;;;;;;72.07;30.70;;;9.10;99.90;;;;;;5025189;28;20481;-73
2023/01/07 07:31:39;;;;;;;63.08;28.45;;;9.10;99.90;;;;;;5022697;28;20107;-74
2023/01/07 07:34:04;;;;;;;67.95;29.10;;;9.10;99.90;;;;;;5031186;28;20029;-73
2023/01/07 07:36:30;;;;;;;64.10;29.35;;;9.10;99.90;;;;;;5032401;28;20048;-73
2023/01/07 07:38:56;;;;;;;64.85;28.80;;;9.10;99.90;;;;;;5028553;28;20436;-74
2023/01/07 07:41:21;;;;;;;60.30;27.15;;;9.10;99.90;;;;;;5027467;28;20083;-73
2023/01/07 07:43:47;;;;;;;58.13;25.92;;;9.10;99.90;;;;;;5031303;28;20036;-73
2023/01/07 07:46:12;;;;;;;58.35;27.42;;;9.10;99.90;;;;;;5029998;28;20041;-74
2023/01/07 07:48:38;;;;;;;61.65;26.27;;;9.10;99.90;;;;;;5028764;28;20033;-73
2023/01/07 07:51:04;;;;;;;58.95;26.02;;;9.10;99.90;;;;;;5027817;28;20076;-73
2023/01/07 07:53:29;;;;;;;59.10;26.10;;;9.10;99.90;;;;;;5030431;28;20045;-73
2023/01/07 07:55:55;;;;;;;55.53;24.70;;;9.00;99.90;;;;;;5029174;28;20132;-73
2023/01/07 07:58:20;;;;;;;52.58;24.65;;;9.00;99.90;;;;;;5026925;28;20409;-73
2023/01/07 08:00:46;;;;;;;53.35;24.48;;;9.10;99.90;;;;;;5025725;28;20377;-74
2023/01/07 08:03:11;;;;;;;45.20;22.38;;;9.00;99.90;;;;;;5023343;28;20040;-73
2023/01/07 08:05:43;;;;;;;54.33;24.25;;;9.10;99.90;;;;;;5027354;28;20103;-73
2023/01/07 08:08:11;;;;;;;54.78;24.80;;;9.00;99.90;;;;;;5023670;28;20050;-74
2023/01/07 08:10:37;;;;;;;51.70;23.80;;;9.00;99.90;;;;;;5028037;28;20544;-74
2023/01/07 08:13:03;;;;;;;47.22;22.50;;;9.00;99.90;;;;;;5028780;28;20045;-74
2023/01/07 08:15:29;;;;;;;45.58;21.73;;;9.00;99.90;;;;;;5032397;28;20026;-73
2023/01/07 08:18:04;;;;;;;47.80;20.35;;;9.00;99.90;;;;;;5027303;28;20042;-74
2023/01/07 08:20:30;;;;;;;46.63;21.13;;;9.00;99.90;;;;;;5022701;28;20440;-74
2023/01/07 08:23:00;;;;;;;41.78;19.10;;;9.00;99.90;;;;;;5027128;28;20042;-74
2023/01/07 08:25:27;;;;;;;38.90;19.15;;;9.00;99.90;;;;;;5029083;28;20143;-74
2023/01/07 08:27:54;;;;;;;37.47;19.33;;;9.00;99.90;;;;;;5031724;28;20034;-74
2023/01/07 08:30:20;;;;;;;37.78;18.50;;;9.00;99.90;;;;;;5029311;28;20037;-74
2023/01/07 08:32:46;;;;;;;35.58;17.40;;;9.00;99.90;;;;;;5025771;28;20037;-74
2023/01/07 08:35:11;;;;;;;32.70;17.75;;;9.00;99.90;;;;;;5024790;28;20038;-72
2023/01/07 08:37:37;;;;;;;30.70;15.68;;;9.00;99.90;;;;;;5028442;28;20055;-71
2023/01/07 08:40:03;;;;;;;25.52;14.73;;;9.00;99.90;;;;;;5029464;28;20036;-75
2023/01/07 08:42:29;;;;;;;29.35;14.48;;;9.00;99.90;;;;;;5029759;28;20025;-69
2023/01/07 08:44:55;;;;;;;26.10;14.48;;;9.00;99.90;;;;;;5020662;28;20038;-66
2023/01/07 08:47:20;;;;;;;27.08;13.88;;;9.00;99.90;;;;;;5024399;28;20045;-67
2023/01/07 08:49:46;;;;;;;25.67;13.50;;;9.00;99.90;;;;;;5026074;28;20418;-70
2023/01/07 08:52:11;;;;;;;22.17;12.25;;;9.00;99.90;;;;;;5029243;28;20075;-70
2023/01/07 08:54:37;;;;;;;21.20;11.38;;;9.00;99.90;;;;;;5027910;28;20116;-69
2023/01/07 08:57:02;;;;;;;18.10;10.80;;;9.00;99.90;;;;;;5019447;28;20033;-70
2023/01/07 08:59:28;;;;;;;17.67;10.40;;;9.00;99.90;;;;;;5027714;28;20435;-70
2023/01/07 09:01:53;;;;;;;17.45;9.85;;;9.00;99.90;;;;;;5023552;28;20033;-69
2023/01/07 09:04:19;;;;;;;14.68;9.07;;;9.00;99.90;;;;;;5019928;28;20084;-70
2023/01/07 09:06:44;;;;;;;14.60;9.05;;;9.00;99.90;;;;;;5027284;28;20093;-70
2023/01/07 09:09:10;;;;;;;13.80;8.88;;;9.00;99.90;;;;;;5024832;28;20382;-70
2023/01/07 09:11:36;;;;;;;13.52;8.70;;;9.00;99.90;;;;;;5025148;28;20434;-70
2023/01/07 09:14:02;;;;;;;15.68;7.90;;;9.10;99.90;;;;;;5018888;28;20529;-70
2023/01/07 09:16:27;;;;;;;14.00;8.07;;;9.10;99.90;;;;;;5024725;28;20037;-70
2023/01/07 09:18:53;;;;;;;10.95;7.25;;;9.10;99.90;;;;;;5024379;28;21316;-70
2023/01/07 09:21:18;;;;;;;12.05;6.53;;;9.10;99.90;;;;;;5019352;28;20069;-70
2023/01/07 09:23:44;;;;;;;9.57;6.32;;;9.10;99.90;;;;;;5020911;28;20135;-70
2023/01/07 09:26:09;;;;;;;11.73;6.75;;;9.10;99.90;;;;;;5031286;28;20041;-70
2023/01/07 09:28:35;;;;;;;8.98;5.88;;;9.20;99.90;;;;;;5023638;28;20045;-70
2023/01/07 09:31:01;;;;;;;9.50;5.57;;;9.20;99.90;;;;;;5020993;28;20520;-70
2023/01/07 09:33:27;;;;;;;9.07;5.13;;;9.30;99.90;;;;;;5021253;28;20276;-69
2023/01/07 09:35:53;;;;;;;9.73;5.13;;;9.30;99.90;;;;;;5023496;28;20041;-70
2023/01/07 09:38:18;;;;;;;7.47;4.70;;;9.30;99.90;;;;;;5022917;28;20038;-70
2023/01/07 09:40:44;;;;;;;8.70;5.18;;;9.30;99.90;;;;;;5024788;28;20087;-70
2023/01/07 09:43:18;;;;;;;8.10;4.95;;;9.30;99.90;;;;;;5015667;28;20030;-70
2023/01/07 09:45:51;;;;;;;7.18;5.03;;;9.40;99.90;;;;;;5021048;28;20037;-70
2023/01/07 09:48:28;;;;;;;6.43;4.22;;;9.30;99.90;;;;;;5018149;28;20063;-70
2023/01/07 09:51:03;;;;;;;7.13;4.10;;;9.30;99.90;;;;;;5025283;28;20018;-70
2023/01/07 09:53:41;;;;;;;5.32;3.50;;;9.30;99.80;;;;;;5029206;28;20017;-72
2023/01/07 09:56:18;;;;;;;5.90;4.10;;;9.20;99.60;;;;;;5023417;28;20033;-72
2023/01/07 09:58:46;;;;;;;5.75;3.20;;;9.20;99.70;;;;;;5018814;28;20033;-69
2023/01/07 10:01:32;;;;;;;6.32;3.45;;;9.30;99.60;;;;;;5021348;28;20524;-72
2023/01/07 10:04:22;;;;;;;5.72;3.50;;;9.30;99.50;;;;;;5026609;28;20038;-72
2023/01/07 10:07:11;;;;;;;4.57;3.13;;;9.30;99.50;;;;;;5025127;28;20516;-71
2023/01/07 10:10:01;;;;;;;6.03;3.03;;;9.30;99.40;;;;;;5017735;28;20136;-70
2023/01/07 10:12:44;;;;;;;4.63;2.67;;;9.30;99.40;;;;;;5013305;28;20127;-70
2023/01/07 10:15:12;;;;;;;4.63;2.80;;;9.30;99.30;;;;;;5028184;28;20530;-69
2023/01/07 10:18:19;;;;;;;5.03;3.00;;;9.30;99.20;;;;;;5023876;28;20037;-71
2023/01/07 10:20:48;;;;;;;7.45;2.90;;;9.30;99.20;;;;;;5023856;28;20037;-71
2023/01/07 10:23:35;;;;;;;4.28;2.92;;;9.30;99.10;;;;;;5026204;28;20497;-69
2023/01/07 10:26:01;;;;;;;3.92;2.38;;;9.30;99.00;;;;;;5021897;28;20018;-70
2023/01/07 10:28:43;;;;;;;3.97;2.58;;;9.30;99.00;;;;;;5026059;28;20025;-69
2023/01/07 10:31:19;;;;;;;3.50;2.40;;;9.40;98.90;;;;;;5024887;28;20434;-71
2023/01/07 10:33:47;;;;;;;7.53;2.70;;;9.40;98.50;;;;;;5026428;28;20110;-70
2023/01/07 10:36:34;;;;;;;3.40;2.15;;;9.50;98.60;;;;;;5030191;28;20038;-68
2023/01/07 10:39:39;;;;;;;3.55;1.98;;;9.50;98.20;;;;;;5024714;28;20049;-70
2023/01/07 10:42:30;;;;;;;3.75;2.17;;;9.50;98.20;;;;;;5030868;28;20079;-69
2023/01/07 10:45:08;;;;;;;4.00;2.03;;;9.50;98.30;;;;;;5027216;28;20033;-70
2023/01/07 10:48:11;;;;;;;3.30;1.90;;;9.60;98.20;;;;;;5023950;28;20056;-70
2023/01/07 10:51:12;;;;;;;2.58;1.77;;;9.60;97.70;;;;;;5025584;28;20125;-69
2023/01/07 10:53:54;;;;;;;4.78;1.90;;;9.70;97.70;;;;;;5020992;28;20032;-69
2023/01/07 10:56:32;;;;;;;2.88;1.90;;;9.60;97.10;;;;;;5031673;28;20120;-70
2023/01/07 10:58:57;;;;;;;2.80;2.00;;;9.60;96.70;;;;;;5022611;28;20048;-69
2023/01/07 11:01:32;;;;;;;2.75;1.70;;;9.70;97.00;;;;;;5029378;28;20030;-70
2023/01/07 11:03:58;;;;;;;4.40;1.75;;;9.70;97.00;;;;;;5023615;28;20145;-70
2023/01/07 11:06:49;;;;;;;2.70;1.77;;;9.70;97.00;;;;;;5024841;28;20029;-70
2023/01/07 11:09:24;;;;;;;3.40;1.65;;;9.80;97.10;;;;;;5026023;28;20040;-69
2023/01/07 11:11:52;;;;;;;2.38;1.70;;;9.80;96.80;;;;;;5027381;28;20079;-69
2023/01/07 11:14:26;;;;;;;3.92;1.80;;;9.80;96.70;;;;;;5025312;28;20045;-70
2023/01/07 11:16:59;;;;;;;3.47;1.58;;;9.80;96.50;;;;;;5035053;28;20033;-70
2023/01/07 11:19:42;;;;;;;2.95;1.73;;;9.80;96.70;;;;;;5021921;28;20044;-69
2023/01/07 11:22:25;;;;;;;5.07;2.00;;;9.80;96.70;;;;;;5025308;28;20045;-69
2023/01/07 11:24:55;;;;;;;2.67;1.50;;;9.70;95.60;;;;;;5025081;28;20451;-70
2023/01/07 11:27:24;;;;;;;2.78;1.60;;;9.70;96.10;;;;;;5024253;28;20030;-70
2023/01/07 11:30:27;;;;;;;2.65;1.65;;;9.70;96.10;;;;;;5020691;28;20045;-71
2023/01/07 11:33:01;;;;;;;2.10;1.50;;;9.70;96.20;;;;;;5006061;28;20053;-70
2023/01/07 11:35:27;;;;;;;3.90;1.73;;;9.60;96.20;;;;;;5026034;28;20036;-70
2023/01/07 11:37:53;;;;;;;2.60;1.50;;;9.70;96.30;;;;;;5030126;28;20041;-71
2023/01/07 11:40:24;;;;;;;2.25;1.30;;;9.70;95.80;;;;;;5031719;28;20095;-70
2023/01/07 11:43:02;;;;;;;3.28;1.58;;;9.70;96.00;;;;;;5027142;28;20044;-71
2023/01/07 11:45:47;;;;;;;2.72;1.50;;;9.70;96.20;;;;;;5026621;28;20446;-70
2023/01/07 11:48:33;;;;;;;4.32;1.30;;;9.80;96.20;;;;;;5026871;28;20037;-70
2023/01/07 11:51:01;;;;;;;3.15;1.80;;;9.80;96.20;;;;;;5027808;28;20478;-70
2023/01/07 11:53:36;;;;;;;3.45;1.60;;;9.70;96.10;;;;;;5026534;28;20382;-70
2023/01/07 11:56:08;;;;;;;3.28;1.73;;;9.80;96.10;;;;;;5032270;28;20037;-70
2023/01/07 11:58:35;;;;;;;6.28;1.90;;;9.70;96.00;;;;;;5028618;28;20041;-70
2023/01/07 12:01:07;;;;;;;3.40;1.80;;;9.70;96.00;;;;;;5027771;28;20025;-69
2023/01/07 12:03:39;;;;;;;2.65;1.60;;;9.80;96.10;;;;;;5030984;28;20575;-70
2023/01/07 12:06:27;;;;;;;3.85;1.67;;;9.70;96.00;;;;;;5025143;28;20116;-69
2023/01/07 12:09:06;;;;;;;2.63;1.50;;;9.70;95.50;;;;;;5019073;28;20471;-71
2023/01/07 12:11:34;;;;;;;2.90;1.50;;;9.70;95.60;;;;;;5030091;28;20448;-71
2023/01/07 12:14:06;;;;;;;2.53;1.70;;;9.60;95.80;;;;;;5024249;28;20099;-71
2023/01/07 12:16:34;;;;;;;3.70;1.77;;;9.60;95.60;;;;;;5032883;28;20033;-71
2023/01/07 12:19:12;;;;;;;4.65;1.85;;;9.60;95.60;;;;;;5030255;28;20191;-71
2023/01/07 12:21:48;;;;;;;3.25;1.77;;;9.60;95.50;;;;;;5029318;28;20486;-70
2023/01/07 12:24:36;;;;;;;2.90;1.50;;;9.60;95.40;;;;;;5029182;28;20038;-69
2023/01/07 12:27:38;;;;;;;3.83;1.80;;;9.60;95.30;;;;;;5025654;28;20041;-71
2023/01/07 12:30:41;;;;;;;2.45;1.67;;;9.60;95.50;;;;;;5029056;28;20040;-70
2023/01/07 12:33:31;;;;;;;3.03;1.70;;;9.70;95.60;;;;;;5022326;28;20037;-71
2023/01/07 12:36:04;;;;;;;2.40;1.60;;;9.70;95.50;;;;;;5025284;28;20033;-71
2023/01/07 12:38:49;;;;;;;2.72;1.75;;;9.70;95.40;;;;;;5020149;28;20065;-70
2023/01/07 12:41:24;;;;;;;3.05;1.77;;;9.70;95.20;;;;;;5027655;28;20034;-69
2023/01/07 12:44:09;;;;;;;2.17;1.85;;;9.80;95.00;;;;;;5020206;28;20033;-69
2023/01/07 12:46:40;;;;;;;3.33;1.90;;;9.80;95.00;;;;;;5020949;28;20040;-74
2023/01/07 12:49:12;;;;;;;3.47;1.73;;;9.80;95.10;;;;;;5029374;28;20441;-72
2023/01/07 12:51:50;;;;;;;3.58;1.98;;;9.90;94.80;;;;;;5026842;28;20029;-73
2023/01/07 12:54:33;;;;;;;3.95;1.73;;;9.90;94.60;;;;;;5031772;28;20025;-70
2023/01/07 12:57:05;;;;;;;2.97;1.70;;;9.90;94.50;;;;;;5026884;28;20116;-68
2023/01/07 13:00:01;;;;;;;2.30;1.52;;;9.90;94.60;;;;;;5029898;28;20144;-70